Time;durP1;ratioP1;P1;durP2;ratioP2;P2;SDS_P1;SDS_P2;PMS_P1;PMS_P2;Temp;Humidity;BMP_temperature;BMP_pressure;BME280_temperature;BME280_humidity;BME280_pressure;Samples;Min_cycle;Max_cycle;Signal;HPM_P1;HPM_P2
2022/12/18 00:00:29;;;;;;;1999.90;999.90;;;-8.20;99.90;;;;;;4957431;28;20397;-77
2022/12/18 00:02:55;;;;;;;1999.90;999.90;;;-8.10;99.90;;;;;;4958949;28;20450;-78
2022/12/18 00:05:21;;;;;;;1999.90;999.90;;;-8.30;99.90;;;;;;4958540;28;20039;-77
2022/12/18 00:07:46;;;;;;;1999.90;999.90;;;-8.40;99.90;;;;;;4958690;28;20482;-78
2022/12/18 00:10:12;;;;;;;1999.90;999.90;;;-8.40;99.90;;;;;;4957557;28;20043;-77
2022/12/18 00:12:38;;;;;;;1999.90;999.90;;;-8.40;99.90;;;;;;4958921;28;20474;-77
2022/12/18 00:15:04;;;;;;;1999.90;999.90;;;-8.40;99.90;;;;;;4958931;28;20099;-77
2022/12/18 00:17:30;;;;;;;1999.90;999.90;;;-8.40;99.90;;;;;;4958101;28;20510;-77
2022/12/18 00:19:56;;;;;;;1999.90;999.90;;;-8.40;99.90;;;;;;4958677;28;20067;-77
2022/12/18 00:22:21;;;;;;;1999.90;999.90;;;-8.50;99.90;;;;;;4958424;28;20043;-77
2022/12/18 00:24:47;;;;;;;1999.90;999.90;;;-8.50;99.90;;;;;;4958532;28;20044;-77
2022/12/18 00:27:12;;;;;;;1999.90;999.90;;;-8.40;99.90;;;;;;4957182;28;20028;-77
2022/12/18 00:29:39;;;;;;;1999.90;999.90;;;-8.30;99.90;;;;;;4957189;28;20498;-77
2022/12/18 05:01:22;;;;;;;1999.90;999.90;;;-8.90;99.90;;;;;;5547776;22;20047;-76
2022/12/18 05:03:47;;;;;;;1999.90;999.90;;;-9.00;99.90;;;;;;4995196;28;20038;-77
2022/12/18 05:06:13;;;;;;;1999.90;999.90;;;-9.00;99.90;;;;;;4995467;28;20054;-76
2022/12/18 05:08:39;;;;;;;1999.90;999.90;;;-8.90;99.90;;;;;;4994988;28;20567;-76
2022/12/18 05:11:10;;;;;;;1999.90;999.90;;;-8.90;99.90;;;;;;4996060;28;20115;-76
2022/12/18 05:13:37;;;;;;;1999.90;999.90;;;-8.70;99.90;;;;;;4995021;28;20031;-76
2022/12/18 05:16:04;;;;;;;1999.90;999.90;;;-8.70;99.90;;;;;;5018942;22;20057;-76
2022/12/18 05:18:30;;;;;;;1999.90;999.90;;;-8.80;99.90;;;;;;4996307;28;20137;-75
2022/12/18 05:20:56;;;;;;;1999.90;999.90;;;-9.00;99.90;;;;;;4994738;28;20034;-75
2022/12/18 05:23:23;;;;;;;1999.90;999.90;;;-9.00;99.90;;;;;;4996437;28;20039;-77
2022/12/18 05:26:00;;;;;;;1999.90;999.90;;;-9.00;99.90;;;;;;4994642;28;20121;-77
2022/12/18 05:28:28;;;;;;;1999.90;999.90;;;-9.00;99.90;;;;;;4994762;28;20519;-77
2022/12/18 05:30:56;;;;;;;1999.90;999.90;;;-9.00;99.90;;;;;;4994408;28;20043;-77
2022/12/18 05:33:24;;;;;;;1999.90;999.90;;;-9.00;99.90;;;;;;4996036;28;20090;-77
2022/12/18 05:35:54;;;;;;;1999.90;999.90;;;-9.10;99.90;;;;;;4995880;28;20093;-77
2022/12/18 05:38:21;;;;;;;1999.90;999.90;;;-9.10;99.90;;;;;;4995976;28;20039;-77
2022/12/18 05:40:48;;;;;;;1999.90;999.90;;;-9.00;99.90;;;;;;4995774;28;20035;-77
2022/12/18 05:43:14;;;;;;;1999.90;999.90;;;-9.00;99.90;;;;;;4996050;28;20031;-75
2022/12/18 05:45:40;;;;;;;1999.90;999.90;;;-9.00;99.90;;;;;;4993761;28;20041;-75
2022/12/18 05:48:06;;;;;;;1999.90;999.90;;;-9.00;99.90;;;;;;4996082;28;20039;-75
2022/12/18 05:50:40;;;;;;;1999.90;999.90;;;-8.90;99.90;;;;;;4995497;28;20049;-75
2022/12/18 05:53:07;;;;;;;1999.90;999.90;;;-9.00;99.90;;;;;;4994293;28;20560;-75
2022/12/18 05:55:34;;;;;;;1999.90;999.90;;;-9.00;99.90;;;;;;4994369;28;20554;-75
2022/12/18 05:58:00;;;;;;;1999.90;999.90;;;-9.10;99.90;;;;;;4999233;28;20031;-75
2022/12/18 06:00:25;;;;;;;1999.90;999.90;;;-9.10;99.90;;;;;;5000938;28;20518;-75
2022/12/18 06:02:51;;;;;;;1999.90;999.90;;;-9.20;99.90;;;;;;4995884;28;20037;-75
2022/12/18 06:05:17;;;;;;;1999.90;999.90;;;-9.30;99.90;;;;;;4994824;28;20122;-75
2022/12/18 06:07:42;;;;;;;1999.90;999.90;;;-9.30;99.90;;;;;;4995788;28;20031;-75
2022/12/18 06:10:08;;;;;;;1999.90;999.90;;;-9.20;99.90;;;;;;4995224;28;20041;-75
2022/12/18 06:12:33;;;;;;;1999.90;999.90;;;-9.10;99.90;;;;;;4995289;28;20035;-75
2022/12/18 06:15:00;;;;;;;1999.90;999.90;;;-9.10;99.90;;;;;;4995541;28;20077;-75
2022/12/18 06:17:30;;;;;;;1999.90;999.90;;;-9.10;99.90;;;;;;4995514;28;20049;-75
2022/12/18 06:19:55;;;;;;;1999.90;999.90;;;-9.20;99.90;;;;;;4994793;28;20126;-75
2022/12/18 06:22:21;;;;;;;1999.90;999.90;;;-9.10;99.90;;;;;;4995293;28;20031;-75
2022/12/18 06:24:46;;;;;;;1999.90;999.90;;;-9.10;99.90;;;;;;4995277;28;20041;-75
2022/12/18 06:27:12;;;;;;;1999.90;999.90;;;-9.20;99.90;;;;;;4995224;28;20039;-75
2022/12/18 06:29:38;;;;;;;1999.90;999.90;;;-9.20;99.90;;;;;;4995389;28;20410;-75
2022/12/18 06:32:03;;;;;;;1999.90;999.90;;;-9.10;99.90;;;;;;4995168;28;20053;-75
2022/12/18 06:34:29;;;;;;;1999.90;999.90;;;-9.00;99.90;;;;;;4994637;28;20039;-75
2022/12/18 06:36:54;;;;;;;1999.90;999.90;;;-9.00;99.90;;;;;;4995262;28;20559;-77
2022/12/18 06:39:20;;;;;;;1999.90;999.90;;;-9.00;99.90;;;;;;4995073;28;20488;-77
2022/12/18 06:41:45;;;;;;;1999.90;999.90;;;-8.90;99.90;;;;;;4995090;28;20043;-75
2022/12/18 06:44:11;;;;;;;1999.90;999.90;;;-9.00;99.90;;;;;;4995160;28;20481;-77
2022/12/18 06:46:37;;;;;;;1999.90;999.90;;;-9.10;99.90;;;;;;4994612;28;20043;-77
2022/12/18 06:49:03;;;;;;;1999.90;999.90;;;-8.90;99.90;;;;;;4994935;28;20054;-77
2022/12/18 06:51:29;;;;;;;1999.90;999.90;;;-8.90;99.90;;;;;;4994845;28;20035;-77
2022/12/18 06:53:54;;;;;;;1999.90;999.90;;;-8.70;99.90;;;;;;4994957;28;20432;-77
2022/12/18 06:56:20;;;;;;;1999.90;999.90;;;-8.90;99.90;;;;;;4992396;28;20039;-77
2022/12/18 06:58:45;;;;;;;1999.90;999.90;;;-9.00;99.90;;;;;;4994775;28;20429;-78
2022/12/18 07:01:11;;;;;;;1999.90;999.90;;;-9.00;99.90;;;;;;4994898;28;20130;-75
2022/12/18 07:03:38;;;;;;;1999.90;999.90;;;-8.90;99.90;;;;;;4995049;28;20511;-75
2022/12/18 07:06:04;;;;;;;1999.90;999.90;;;-9.10;99.90;;;;;;4994574;28;20047;-75
2022/12/18 07:08:31;;;;;;;1999.90;999.90;;;-9.00;99.90;;;;;;4995054;28;20415;-75
2022/12/18 07:10:56;;;;;;;1999.90;999.90;;;-9.10;99.90;;;;;;4993927;28;20491;-75
2022/12/18 07:13:22;;;;;;;1999.90;999.90;;;-9.10;99.90;;;;;;4997635;28;20035;-75
2022/12/18 07:15:48;;;;;;;1999.90;999.90;;;-9.10;99.90;;;;;;4998763;28;20050;-75
2022/12/18 07:18:13;;;;;;;1999.90;999.90;;;-9.10;99.90;;;;;;5000328;28;20444;-75
2022/12/18 07:20:39;;;;;;;1999.90;999.90;;;-9.10;99.90;;;;;;5000271;28;20428;-75
2022/12/18 07:23:05;;;;;;;1999.90;999.90;;;-9.00;99.90;;;;;;4998924;28;20053;-78
2022/12/18 07:25:37;;;;;;;1999.90;999.90;;;-8.90;99.90;;;;;;5000585;28;20739;-76
2022/12/18 07:28:03;;;;;;;1999.90;999.90;;;-8.70;99.90;;;;;;4998940;28;20039;-76
2022/12/18 07:30:29;;;;;;;1999.90;999.90;;;-8.80;99.90;;;;;;5000654;28;20110;-76
2022/12/18 07:32:55;;;;;;;1999.90;999.90;;;-8.80;99.90;;;;;;5000661;28;20529;-76
2022/12/18 07:35:20;;;;;;;1999.90;999.90;;;-8.70;99.90;;;;;;4999572;28;20043;-76
2022/12/18 07:37:46;;;;;;;1999.90;999.90;;;-8.70;99.90;;;;;;4999918;28;20031;-76
2022/12/18 07:40:12;;;;;;;1999.90;999.90;;;-8.70;99.90;;;;;;4998159;28;20035;-78
2022/12/18 07:42:37;;;;;;;1999.90;999.90;;;-8.70;99.90;;;;;;4992962;28;20058;-76
2022/12/18 07:45:04;;;;;;;1999.90;999.90;;;-8.70;99.90;;;;;;4987682;28;20043;-76
2022/12/18 07:47:30;;;;;;;1999.90;999.90;;;-8.70;99.90;;;;;;4982557;28;20027;-76
2022/12/18 07:49:56;;;;;;;1999.90;999.90;;;-8.70;99.90;;;;;;4984960;28;20043;-78
2022/12/18 07:52:22;;;;;;;1999.90;999.90;;;-8.70;99.90;;;;;;4985970;28;20032;-79
2022/12/18 07:54:49;;;;;;;1999.90;999.90;;;-8.80;99.90;;;;;;4979071;28;20059;-77
2022/12/18 07:57:16;;;;;;;1999.90;999.90;;;-8.90;99.90;;;;;;4980199;28;20030;-77
2022/12/18 07:59:41;;;;;;;1999.90;999.90;;;-8.90;99.90;;;;;;4980456;28;20481;-77
2022/12/18 08:02:07;;;;;;;1999.90;999.90;;;-8.80;99.90;;;;;;4982094;28;20035;-77
2022/12/18 08:04:35;;;;;;;1999.90;999.90;;;-8.60;99.90;;;;;;4986310;28;20042;-79
2022/12/18 08:07:01;;;;;;;1999.90;999.90;;;-8.60;99.90;;;;;;4985349;28;20541;-78
2022/12/18 08:09:26;;;;;;;1999.90;999.90;;;-8.50;99.90;;;;;;4991010;28;20031;-78
2022/12/18 08:11:52;;;;;;;1999.90;999.90;;;-8.30;99.90;;;;;;4995391;28;20043;-78
2022/12/18 08:14:17;;;;;;;1999.90;999.90;;;-8.20;99.90;;;;;;4990799;28;20086;-79
2022/12/18 08:16:43;;;;;;;1999.90;999.90;;;-8.20;99.90;;;;;;4979799;28;20043;-77
2022/12/18 08:19:08;;;;;;;1999.90;999.90;;;-8.20;99.90;;;;;;4976844;28;20035;-77
2022/12/18 08:21:34;;;;;;;1999.90;999.90;;;-8.30;99.90;;;;;;4982981;28;20042;-79
2022/12/18 08:24:01;;;;;;;1999.90;999.90;;;-8.20;99.90;;;;;;4987181;28;20039;-80
2022/12/18 08:26:29;;;;;;;1999.90;999.90;;;-8.10;99.90;;;;;;4988790;28;20055;-79
2022/12/18 08:28:57;;;;;;;1999.90;999.90;;;-8.00;99.90;;;;;;4988988;28;20422;-79
2022/12/18 08:31:24;;;;;;;1999.90;999.90;;;-7.90;99.90;;;;;;4972327;28;20890;-79
2022/12/18 08:33:52;;;;;;;1999.90;999.90;;;-7.90;99.90;;;;;;4988073;28;20046;-80
2022/12/18 08:36:18;;;;;;;1999.90;999.90;;;-7.80;99.90;;;;;;4987505;28;20043;-80
2022/12/18 08:38:43;;;;;;;1999.90;999.90;;;-7.80;99.90;;;;;;4990170;28;20036;-81
2022/12/18 08:41:11;;;;;;;1999.90;999.90;;;-7.60;99.90;;;;;;4988446;28;20062;-80
2022/12/18 08:46:30;;;;;;;1999.90;999.90;;;-7.50;99.90;;;;;;4980390;28;20043;-79
2022/12/18 08:48:56;;;;;;;1999.90;999.90;;;-7.50;99.90;;;;;;4992016;28;20041;-80
2022/12/18 08:51:22;;;;;;;1999.90;999.90;;;-7.40;99.90;;;;;;4990886;28;20102;-80
2022/12/18 08:53:48;;;;;;;1999.90;999.90;;;-7.40;99.90;;;;;;5007788;28;20050;-79
2022/12/18 08:56:14;;;;;;;1999.90;999.90;;;-7.30;99.90;;;;;;4995252;28;20561;-79
2022/12/18 08:58:41;;;;;;;1999.90;999.90;;;-7.20;99.90;;;;;;4989900;28;20035;-80
2022/12/18 09:01:09;;;;;;;1999.90;999.90;;;-7.10;99.90;;;;;;4998715;28;20031;-80
2022/12/18 09:03:34;;;;;;;1999.90;999.90;;;-7.10;99.90;;;;;;5000494;28;20090;-79
2022/12/18 09:06:00;;;;;;;1999.90;999.90;;;-7.00;99.90;;;;;;5008472;28;20047;-80
2022/12/18 09:08:26;;;;;;;1999.90;999.90;;;-6.90;99.90;;;;;;4992695;28;20106;-79
2022/12/18 09:10:52;;;;;;;1999.90;999.90;;;-6.80;99.90;;;;;;4981658;28;20042;-83
2022/12/18 09:13:18;;;;;;;1999.90;999.90;;;-6.80;99.90;;;;;;4983472;28;20042;-81
2022/12/18 09:15:46;;;;;;;1999.90;999.90;;;-6.60;99.90;;;;;;4989334;28;20468;-82
2022/12/18 09:18:13;;;;;;;1999.90;999.90;;;-6.60;99.90;;;;;;5000775;28;20038;-82
2022/12/18 09:20:39;;;;;;;1999.90;999.90;;;-6.50;99.90;;;;;;4983790;28;20066;-81
2022/12/18 09:23:06;;;;;;;1999.90;999.90;;;-6.40;99.90;;;;;;5002053;28;20054;-81
2022/12/18 09:25:33;;;;;;;1999.90;999.90;;;-6.30;99.90;;;;;;5016217;28;20034;-82
2022/12/18 09:28:19;;;;;;;1999.90;999.90;;;-6.20;99.90;;;;;;5017213;28;20082;-83
2022/12/18 09:30:49;;;;;;;1999.90;999.90;;;-6.20;99.90;;;;;;4998837;28;20058;-82
2022/12/18 09:33:15;;;;;;;1999.90;999.90;;;-6.00;99.90;;;;;;4996010;28;20736;-83
2022/12/18 09:35:43;;;;;;;1999.90;999.90;;;-6.00;99.90;;;;;;4977946;28;20074;-83
2022/12/18 09:38:14;;;;;;;1999.90;999.90;;;-5.90;99.90;;;;;;4978228;28;20113;-82
2022/12/18 09:40:49;;;;;;;1999.90;999.90;;;-5.80;99.90;;;;;;4977796;28;20069;-83
2022/12/18 09:43:19;;;;;;;1999.90;999.90;;;-5.70;99.90;;;;;;4995235;28;20042;-81
2022/12/18 09:45:50;;;;;;;1999.90;999.90;;;-5.60;99.90;;;;;;4996513;28;20030;-83
2022/12/18 09:48:25;;;;;;;1999.90;999.90;;;-5.50;99.90;;;;;;4995815;28;20551;-83
2022/12/18 09:50:55;;;;;;;1999.90;999.90;;;-5.40;99.90;;;;;;4992295;28;20039;-83
2022/12/18 09:53:27;;;;;;;1999.90;999.90;;;-5.40;99.90;;;;;;4989562;28;20613;-83
2022/12/18 09:56:00;;;;;;;1999.90;999.90;;;-5.30;99.90;;;;;;4992951;28;20144;-84
2022/12/18 09:58:38;;;;;;;1999.90;999.90;;;-5.20;99.90;;;;;;5000035;28;20031;-84
2022/12/18 10:01:11;;;;;;;1999.90;999.90;;;-5.10;99.90;;;;;;4995981;28;20810;-85
2022/12/18 10:03:37;;;;;;;1999.90;999.90;;;-5.00;99.90;;;;;;5000814;28;20113;-84
2022/12/18 10:06:40;;;;;;;1999.90;999.90;;;-4.90;99.90;;;;;;4992694;28;20058;-85
2022/12/18 10:09:18;;;;;;;1999.90;999.90;;;-4.80;99.90;;;;;;4978230;28;20071;-85
2022/12/18 10:12:04;;;;;;;1999.90;999.90;;;-4.70;99.90;;;;;;5010211;28;20035;-85
2022/12/18 10:15:05;;;;;;;1999.90;999.90;;;-4.60;99.90;;;;;;5009925;28;20035;-85
2022/12/18 10:17:43;;;;;;;1999.90;999.90;;;-4.50;99.90;;;;;;5009378;28;20042;-84
2022/12/18 10:20:30;;;;;;;1999.90;999.90;;;-4.40;99.90;;;;;;5010088;28;20993;-85
2022/12/18 10:23:40;;;;;;;1999.90;999.90;;;-4.30;99.90;;;;;;5008768;28;20046;-85
2022/12/18 10:26:09;;;;;;;1999.90;999.90;;;-4.20;99.90;;;;;;5006026;28;20113;-85
2022/12/18 10:28:38;;;;;;;1999.90;999.90;;;-4.10;99.90;;;;;;5010195;28;20045;-85
2022/12/18 10:31:12;;;;;;;1999.90;999.90;;;-4.00;99.90;;;;;;5009310;28;20061;-85
2022/12/18 10:33:38;;;;;;;1999.90;999.90;;;-3.90;99.90;;;;;;5009732;28;20030;-85
2022/12/18 10:36:04;;;;;;;1999.90;999.90;;;-3.80;99.90;;;;;;5011570;28;20042;-85
2022/12/18 10:38:31;;;;;;;1999.90;999.90;;;-3.70;99.90;;;;;;5009302;28;20061;-85
2022/12/18 10:40:57;;;;;;;1999.90;999.90;;;-3.60;99.90;;;;;;5009483;28;20042;-85
2022/12/18 10:43:30;;;;;;;1999.90;999.90;;;-3.50;99.90;;;;;;5010258;28;20035;-85
2022/12/18 10:46:07;;;;;;;1999.90;999.90;;;-3.40;99.90;;;;;;5009475;28;20042;-84
2022/12/18 10:48:40;;;;;;;1999.90;999.90;;;-3.20;99.90;;;;;;5010396;28;20035;-85
2022/12/18 10:51:07;;;;;;;1999.90;999.90;;;-3.00;99.90;;;;;;5010297;28;20042;-85
2022/12/18 10:53:35;;;;;;;1999.90;999.90;;;-2.90;99.90;;;;;;5010062;28;20035;-85
2022/12/18 10:56:02;;;;;;;1999.90;999.90;;;-2.80;99.90;;;;;;5010737;28;20046;-85
2022/12/18 10:58:34;;;;;;;1999.90;999.90;;;-2.80;99.90;;;;;;5011035;28;20066;-85
2022/12/18 11:01:15;;;;;;;1999.90;999.90;;;-2.50;99.90;;;;;;5010212;28;20051;-86
2022/12/18 11:04:08;;;;;;;1999.90;999.90;;;-2.40;99.90;;;;;;5011055;28;20031;-85
2022/12/18 11:06:51;;;;;;;1999.90;999.90;;;-2.20;99.90;;;;;;5014304;28;20065;-85
2022/12/18 11:09:22;;;;;;;1999.90;999.90;;;-2.00;99.90;;;;;;5011031;28;20030;-85
2022/12/18 11:11:56;;;;;;;1999.90;999.90;;;-1.90;99.90;;;;;;5010988;28;20035;-85
2022/12/18 11:14:32;;;;;;;1999.90;999.90;;;-1.80;99.90;;;;;;5011487;28;20038;-85
2022/12/18 11:16:59;;;;;;;1999.90;999.90;;;-1.70;99.90;;;;;;5005342;28;20035;-87
2022/12/18 11:19:43;;;;;;;1999.90;999.90;;;-1.60;99.90;;;;;;5002530;28;20027;-87
2022/12/18 11:22:24;;;;;;;1999.90;999.90;;;-1.60;99.90;;;;;;5001546;28;20031;-86
2022/12/18 11:25:20;;;;;;;1999.90;999.90;;;-1.40;99.90;;;;;;5000417;28;20031;-86
2022/12/18 11:27:52;;;;;;;1999.90;999.90;;;-1.40;99.90;;;;;;4999202;28;20042;-88
2022/12/18 11:30:31;;;;;;;1999.90;999.90;;;-1.40;99.90;;;;;;5000257;28;20042;-88
2022/12/18 11:33:02;;;;;;;1999.90;999.90;;;-1.30;99.90;;;;;;4999919;28;20027;-86
2022/12/18 11:35:52;;;;;;;1999.90;999.90;;;-1.30;99.90;;;;;;5001086;28;20405;-86
2022/12/18 11:38:23;;;;;;;1999.90;999.90;;;-1.50;99.90;;;;;;4999821;28;20812;-86
2022/12/18 11:40:55;;;;;;;1999.90;999.90;;;-1.40;99.90;;;;;;4999770;28;20038;-86
2022/12/18 11:43:33;;;;;;;1999.90;999.90;;;-1.40;99.90;;;;;;5001701;28;20039;-86
2022/12/18 11:46:22;;;;;;;1999.90;999.90;;;-1.40;99.90;;;;;;5002647;28;20038;-86
2022/12/18 11:49:01;;;;;;;1999.90;999.90;;;-1.30;99.90;;;;;;5002658;28;20035;-85
2022/12/18 11:51:37;;;;;;;1999.90;999.90;;;-1.30;99.90;;;;;;5002604;28;20047;-88
2022/12/18 11:54:13;;;;;;;1999.90;999.90;;;-1.30;99.90;;;;;;5003215;28;20066;-86
2022/12/18 11:56:49;;;;;;;1999.90;999.90;;;-1.20;99.90;;;;;;5003999;28;20034;-86
2022/12/18 11:59:41;;;;;;;1999.90;999.90;;;-1.30;99.90;;;;;;5002847;28;20097;-86
2022/12/18 12:02:57;;;;;;;1999.90;999.90;;;-1.10;99.90;;;;;;5001904;28;20030;-86
2022/12/18 12:05:50;;;;;;;1999.90;999.90;;;-1.00;99.90;;;;;;5001733;28;20026;-86
2022/12/18 12:08:45;;;;;;;1999.90;999.90;;;-0.80;99.90;;;;;;5001514;28;20516;-89
2022/12/18 12:11:28;;;;;;;1999.90;999.90;;;-0.80;99.90;;;;;;5001250;28;20535;-87
2022/12/18 12:14:03;;;;;;;1999.90;999.90;;;-0.80;99.90;;;;;;5001253;28;20022;-86
2022/12/18 12:16:45;;;;;;;1999.90;999.90;;;-0.70;99.90;;;;;;4999606;28;20039;-86
2022/12/18 12:19:39;;;;;;;1999.90;999.90;;;-0.50;99.90;;;;;;5000070;28;20062;-86
2022/12/18 12:22:22;;;;;;;1999.90;999.90;;;-0.40;99.90;;;;;;5002278;28;20532;-86
2022/12/18 12:25:02;;;;;;;1999.90;999.90;;;-0.50;99.90;;;;;;5011058;28;20040;-86
2022/12/18 12:27:50;;;;;;;1999.90;999.90;;;-0.40;99.90;;;;;;5007929;28;20102;-84
2022/12/18 12:30:46;;;;;;;1999.90;999.90;;;-0.40;99.90;;;;;;5002622;28;20050;-85
2022/12/18 12:33:47;;;;;;;1999.90;999.90;;;-0.50;99.90;;;;;;5002962;28;20768;-85
2022/12/18 12:36:30;;;;;;;1999.90;999.90;;;-0.30;99.90;;;;;;5004105;28;20038;-84
2022/12/18 12:39:01;;;;;;;1999.90;999.90;;;-0.10;99.90;;;;;;5004071;28;20059;-85
2022/12/18 12:44:40;;;;;;;1999.90;999.90;;;0.00;99.90;;;;;;5000862;28;20121;-84
2022/12/18 12:47:24;;;;;;;1999.90;999.90;;;0.00;99.90;;;;;;4998913;28;20046;-84
2022/12/18 12:49:50;;;;;;;1999.90;999.90;;;0.20;99.90;;;;;;4998814;28;20027;-84
2022/12/18 12:52:45;;;;;;;1999.90;999.90;;;0.20;99.90;;;;;;5015462;28;20041;-84
2022/12/18 12:55:21;;;;;;;1999.90;999.90;;;0.40;99.90;;;;;;5012091;28;20042;-84
2022/12/18 12:57:53;;;;;;;1999.90;999.90;;;0.60;99.90;;;;;;4997332;28;20035;-84
2022/12/18 13:00:19;;;;;;;1999.90;999.90;;;0.50;99.90;;;;;;4996768;28;20141;-84
2022/12/18 13:03:14;;;;;;;1999.90;999.90;;;0.20;99.90;;;;;;4996829;28;20138;-84
2022/12/18 13:05:54;;;;;;;1999.90;999.90;;;-0.10;99.90;;;;;;4996195;28;20523;-85
2022/12/18 13:08:28;;;;;;;1999.90;999.90;;;-0.20;99.90;;;;;;4998825;28;20409;-84
2022/12/18 13:13:54;;;;;;;1999.90;999.90;;;0.00;99.90;;;;;;5008469;28;20031;-84
2022/12/18 13:16:24;;;;;;;1999.90;999.90;;;0.00;99.90;;;;;;5004055;28;20947;-84
2022/12/18 13:18:52;;;;;;;1999.90;999.90;;;0.00;99.90;;;;;;4998776;28;20094;-84
2022/12/18 13:21:26;;;;;;;1999.90;999.90;;;0.20;99.90;;;;;;4996325;28;20031;-84
2022/12/18 13:23:53;;;;;;;1999.90;999.90;;;0.20;99.90;;;;;;4996497;28;20592;-84
2022/12/18 13:26:18;;;;;;;1999.90;999.90;;;0.10;99.90;;;;;;4995724;28;20046;-84
2022/12/18 13:28:47;;;;;;;1999.90;999.90;;;0.10;99.90;;;;;;4998690;28;20054;-84
2022/12/18 13:31:40;;;;;;;1999.90;999.90;;;0.10;99.90;;;;;;5001239;28;20122;-85
2022/12/18 13:34:25;;;;;;;1999.90;999.90;;;0.30;99.90;;;;;;5000165;28;20031;-85
2022/12/18 13:36:52;;;;;;;1999.90;999.90;;;0.20;99.90;;;;;;5000048;28;20062;-85
2022/12/18 13:39:18;;;;;;;1999.90;999.90;;;0.30;99.90;;;;;;4997680;28;20041;-86
2022/12/18 13:41:46;;;;;;;1999.90;999.90;;;0.30;99.90;;;;;;4997922;28;20041;-85
2022/12/18 13:44:32;;;;;;;1999.90;999.90;;;0.30;99.90;;;;;;4998365;28;20052;-85
2022/12/18 13:46:59;;;;;;;1999.90;999.90;;;0.20;99.90;;;;;;4997822;28;20042;-86
2022/12/18 13:49:37;;;;;;;1999.90;999.90;;;0.20;99.90;;;;;;4999433;28;20037;-84
2022/12/18 13:52:14;;;;;;;1999.90;999.90;;;0.20;99.90;;;;;;4996085;28;20045;-84
2022/12/18 13:54:41;;;;;;;1999.90;999.90;;;0.30;99.90;;;;;;5002814;28;20027;-84
2022/12/18 13:57:27;;;;;;;1999.90;999.90;;;0.20;99.90;;;;;;4998155;28;20046;-84
2022/12/18 13:59:52;;;;;;;1999.90;999.90;;;0.10;99.90;;;;;;4998072;28;20569;-84
2022/12/18 14:02:26;;;;;;;1999.90;999.90;;;0.10;99.90;;;;;;5000781;28;20049;-84
2022/12/18 14:04:53;;;;;;;1999.90;999.90;;;0.10;99.90;;;;;;5004073;28;20095;-84
2022/12/18 14:07:21;;;;;;;1999.90;999.90;;;0.10;99.90;;;;;;4994521;28;20476;-84
2022/12/18 14:09:56;;;;;;;1999.90;999.90;;;0.00;99.90;;;;;;4995009;28;20973;-83
2022/12/18 14:15:26;;;;;;;1999.90;999.90;;;0.00;99.90;;;;;;5000898;28;20039;-85
2022/12/18 14:17:57;;;;;;;1999.90;999.90;;;-0.10;99.90;;;;;;4995737;28;20100;-85
2022/12/18 14:20:25;;;;;;;1999.90;999.90;;;-0.30;99.90;;;;;;4995323;28;20030;-85
2022/12/18 14:22:51;;;;;;;1999.90;999.90;;;-0.40;99.90;;;;;;4996112;28;20572;-85
2022/12/18 14:25:19;;;;;;;1999.90;999.90;;;-0.50;99.90;;;;;;4995064;28;20078;-85
2022/12/18 14:27:52;;;;;;;1999.90;999.90;;;-0.50;99.90;;;;;;4997054;28;20485;-85
2022/12/18 14:30:29;;;;;;;1999.90;999.90;;;-0.60;99.90;;;;;;4996819;28;20043;-85
2022/12/18 14:33:11;;;;;;;1999.90;999.90;;;-0.70;99.90;;;;;;4996173;28;20037;-85
2022/12/18 14:35:40;;;;;;;1999.90;999.90;;;-0.80;99.90;;;;;;4998646;28;20045;-86
2022/12/18 14:38:30;;;;;;;1999.90;999.90;;;-0.80;99.90;;;;;;4994271;28;20042;-85
2022/12/18 14:41:10;;;;;;;1999.90;999.90;;;-0.80;99.90;;;;;;5001656;28;20037;-85
2022/12/18 14:43:39;;;;;;;1999.90;999.90;;;-0.90;99.90;;;;;;5005916;28;20406;-85
2022/12/18 14:46:26;;;;;;;1999.90;999.90;;;-1.00;99.90;;;;;;5006130;28;20066;-84
2022/12/18 14:48:52;;;;;;;1999.90;999.90;;;-1.00;99.90;;;;;;5005845;28;20027;-85
2022/12/18 14:51:21;;;;;;;1999.90;999.90;;;-1.10;99.90;;;;;;5005494;28;20039;-85
2022/12/18 14:53:55;;;;;;;1999.90;999.90;;;-1.20;99.90;;;;;;5006968;28;20031;-85
2022/12/18 14:56:23;;;;;;;1999.90;999.90;;;-1.30;99.90;;;;;;5005026;28;20039;-85
2022/12/18 14:58:59;;;;;;;1999.90;999.90;;;-1.30;99.90;;;;;;5005534;28;20735;-85
2022/12/18 15:01:39;;;;;;;1999.90;999.90;;;-1.50;99.90;;;;;;5002646;28;20035;-85
2022/12/18 15:04:22;;;;;;;1999.90;999.90;;;-1.60;99.90;;;;;;4998865;28;20027;-85
2022/12/18 15:06:48;;;;;;;1999.90;999.90;;;-1.70;99.90;;;;;;5009923;28;20046;-85
2022/12/18 15:09:26;;;;;;;1999.90;999.90;;;-1.80;99.90;;;;;;5011340;28;20037;-85
2022/12/18 15:11:57;;;;;;;1999.90;999.90;;;-1.90;99.90;;;;;;5006789;28;20065;-85
2022/12/18 15:14:29;;;;;;;1999.90;999.90;;;-2.00;99.90;;;;;;5010496;28;20042;-85
2022/12/18 15:16:55;;;;;;;1999.90;999.90;;;-2.10;99.90;;;;;;5011849;28;20097;-85
2022/12/18 15:19:25;;;;;;;1999.90;999.90;;;-2.20;99.90;;;;;;5006628;28;20030;-85
2022/12/18 15:21:51;;;;;;;1999.90;999.90;;;-2.20;99.90;;;;;;5008673;28;20035;-85
2022/12/18 15:24:31;;;;;;;1999.90;999.90;;;-2.30;99.90;;;;;;5002407;28;20110;-85
2022/12/18 15:26:56;;;;;;;1999.90;999.90;;;-2.40;99.90;;;;;;5007670;28;20038;-85
2022/12/18 15:29:23;;;;;;;1999.90;999.90;;;-2.40;99.90;;;;;;5006164;28;20100;-85
2022/12/18 15:31:59;;;;;;;1999.90;999.90;;;-2.50;99.90;;;;;;5006025;28;20046;-86
2022/12/18 15:34:26;;;;;;;1999.90;999.90;;;-2.60;99.90;;;;;;5008712;28;20030;-85
2022/12/18 15:36:51;;;;;;;1999.90;999.90;;;-2.70;99.90;;;;;;5010583;28;20035;-85
2022/12/18 15:39:17;;;;;;;1999.90;999.90;;;-2.80;99.90;;;;;;5018796;28;20040;-85
2022/12/18 15:43:33;;;;;;;1999.90;999.90;;;-2.90;99.90;;;;;;5017765;28;20035;-85
2022/12/18 15:44:29;;;;;;;1999.90;999.90;;;-3.00;99.90;;;;;;5006151;28;20027;-85
2022/12/18 15:46:55;;;;;;;1999.90;999.90;;;-3.20;99.90;;;;;;5004930;28;20045;-85
2022/12/18 15:49:21;;;;;;;1999.90;999.90;;;-3.30;99.90;;;;;;5006542;28;20885;-85
2022/12/18 15:51:54;;;;;;;1999.90;999.90;;;-3.40;99.90;;;;;;5006638;28;20043;-85
2022/12/18 15:57:22;;;;;;;1999.90;999.90;;;-3.70;99.90;;;;;;4997221;28;20026;-85
2022/12/18 15:59:48;;;;;;;1999.90;999.90;;;-3.70;99.90;;;;;;5003886;28;20070;-85
2022/12/18 16:02:17;;;;;;;1999.90;999.90;;;-3.80;99.90;;;;;;4993238;28;20592;-85
2022/12/18 16:04:43;;;;;;;1999.90;999.90;;;-4.00;99.90;;;;;;4993671;28;20035;-85
2022/12/18 16:07:09;;;;;;;1999.90;999.90;;;-4.10;99.90;;;;;;4993898;28;20041;-85
2022/12/18 16:09:35;;;;;;;1999.90;999.90;;;-4.10;99.90;;;;;;4994371;28;20041;-85
2022/12/18 16:12:02;;;;;;;1999.90;999.90;;;-4.20;99.90;;;;;;5003411;28;20098;-85
2022/12/18 16:14:32;;;;;;;1999.90;999.90;;;-4.20;99.90;;;;;;5003102;28;20031;-85
2022/12/18 16:17:03;;;;;;;1999.90;999.90;;;-4.30;99.90;;;;;;5006194;28;20046;-85
2022/12/18 16:19:29;;;;;;;1999.90;999.90;;;-4.30;99.90;;;;;;5009896;28;20039;-85
2022/12/18 16:21:56;;;;;;;1999.90;999.90;;;-4.20;99.90;;;;;;5006059;28;20102;-85
2022/12/18 16:24:25;;;;;;;1999.90;999.90;;;-4.30;99.90;;;;;;5004886;28;20031;-85
2022/12/18 16:26:52;;;;;;;1999.90;999.90;;;-4.30;99.90;;;;;;5004146;28;20093;-85
2022/12/18 16:29:18;;;;;;;1999.90;999.90;;;-4.20;99.90;;;;;;5006031;28;20042;-85
2022/12/18 16:31:44;;;;;;;1999.90;999.90;;;-4.20;99.90;;;;;;5004849;28;20382;-86
2022/12/18 16:34:21;;;;;;;1999.90;999.90;;;-4.30;99.90;;;;;;5008672;28;20042;-85
2022/12/18 16:36:50;;;;;;;1999.90;999.90;;;-4.20;99.90;;;;;;5004984;28;20485;-85
2022/12/18 16:39:16;;;;;;;1999.90;999.90;;;-4.20;99.90;;;;;;5006145;28;20062;-85
2022/12/18 16:41:42;;;;;;;1999.90;999.90;;;-4.20;99.90;;;;;;5006242;28;20412;-85
2022/12/18 16:44:08;;;;;;;1999.90;999.90;;;-4.20;99.90;;;;;;5008272;28;20527;-85
2022/12/18 16:46:34;;;;;;;1999.90;999.90;;;-4.10;99.90;;;;;;5006643;28;20035;-85
2022/12/18 16:49:00;;;;;;;1999.90;999.90;;;-4.00;99.90;;;;;;5005892;28;20042;-85
2022/12/18 16:51:29;;;;;;;1999.90;999.90;;;-3.90;99.90;;;;;;4999006;28;20034;-85
2022/12/18 16:53:55;;;;;;;1999.90;999.90;;;-3.90;99.90;;;;;;5005243;28;20039;-85
2022/12/18 16:56:22;;;;;;;1999.90;999.90;;;-3.80;99.90;;;;;;5011781;28;20078;-85
2022/12/18 16:58:52;;;;;;;1999.90;999.90;;;-3.80;99.90;;;;;;5009170;28;20038;-85
2022/12/18 17:01:18;;;;;;;1999.90;999.90;;;-3.80;99.90;;;;;;5006541;28;20070;-85
2022/12/18 17:03:43;;;;;;;1999.90;999.90;;;-3.70;99.90;;;;;;5009050;28;20042;-85